^^
Marion, Virginia Banner
 

Adwolf, VA. Station Historical Data
[ Providing Data Since 6/07/2007 ]
Station Historical Data
Daily Summary for December 8, 2017 Units:  Both    English   Metric
« Previous Day
Next Day »
Daily Weekly Monthly Yearly Custom
  High: Low: Average:
Temperature: 30.3 °F /  -0.9 °C 28.2 °F /  -2.1 °C 29.5 °F /  -1.4 °C
Dew Point: 27.9 °F /  -2.3 °C 24.7 °F /  -4.1 °C 26.6 °F /  -3 °C
Humidity: 92% 83% 89%
Wind Speed: 3.5mph /  5.6km/h - 0.7mph /  1.1km/h
Wind Gust: 3.5mph /  5.6km/h - -
Wind- - South
Pressure: 30.16 in /  1021.2 hPa 29.99 in /  1015.5 hPa -
Precipitation: 0.00 in /  0 mm    
Historical Graphs
 
 
Tabular Data for December 8, 2017
Time Temperature Dew Point Pressure Wind Wind Speed Wind Gust Humidity Rainfall Rate (Hourly) solar Conditions
00:00 29.8 °F /  -1.2 °C 25.3 °F /  -3.7 °C 30.15in /  1020.9hPa Calm     83% 0.00in /  0mm WeatherDisplay:10.37 W/m2 SCT
00:05 29.6 °F /  -1.3 °C 25.4 °F /  -3.7 °C 30.14in /  1020.5hPa Calm     84% 0.00in /  0mm WeatherDisplay:10.37 W/m2 SCT
00:10 29.2 °F /  -1.6 °C 25.3 °F /  -3.7 °C 30.15in /  1020.9hPa Calm     85% 0.00in /  0mm WeatherDisplay:10.37 W/m2 SCT
00:15 28.8 °F /  -1.8 °C 24.9 °F /  -3.9 °C 30.15in /  1020.9hPa Calm     85% 0.00in /  0mm WeatherDisplay:10.37 W/m2 SCT
00:20 28.8 °F /  -1.8 °C 24.9 °F /  -3.9 °C 30.15in /  1020.9hPa Calm     85% 0.00in /  0mm WeatherDisplay:10.37 W/m2 SCT
00:25 28.7 °F /  -1.8 °C 25.0 °F /  -3.9 °C 30.15in /  1020.9hPa Calm     86% 0.00in /  0mm WeatherDisplay:10.37 W/m2 SCT
00:30 28.6 °F /  -1.9 °C 24.9 °F /  -3.9 °C 30.14in /  1020.5hPa Calm     86% 0.00in /  0mm WeatherDisplay:10.37 W/m2 CLR
00:35 28.5 °F /  -1.9 °C 24.8 °F /  -4 °C 30.14in /  1020.5hPa Calm     86% 0.00in /  0mm WeatherDisplay:10.37 W/m2 CLR
00:40 28.5 °F /  -1.9 °C 24.8 °F /  -4 °C 30.14in /  1020.5hPa Calm     86% 0.00in /  0mm WeatherDisplay:10.37 W/m2 CLR
00:45 28.4 °F /  -2 °C 24.7 °F /  -4.1 °C 30.14in /  1020.5hPa Calm     86% 0.00in /  0mm WeatherDisplay:10.37 W/m2 CLR
00:50 28.4 °F /  -2 °C 24.7 °F /  -4.1 °C 30.14in /  1020.5hPa Calm     86% 0.00in /  0mm WeatherDisplay:10.37 W/m2 CLR
00:55 28.4 °F /  -2 °C 25.0 °F /  -3.9 °C 30.14in /  1020.5hPa Calm     87% 0.00in /  0mm WeatherDisplay:10.37 W/m2 CLR
01:00 28.3 °F /  -2.1 °C 24.9 °F /  -3.9 °C 30.14in /  1020.5hPa Calm     87% 0.00in /  0mm WeatherDisplay:10.37 W/m2 CLR
01:05 28.2 °F /  -2.1 °C 24.8 °F /  -4 °C 30.14in /  1020.5hPa Calm     87% 0.00in /  0mm WeatherDisplay:10.37 W/m2 CLR
01:10 28.2 °F /  -2.1 °C 25.1 °F /  -3.8 °C 30.14in /  1020.5hPa Calm     88% 0.00in /  0mm WeatherDisplay:10.37 W/m2 CLR
01:15 28.2 °F /  -2.1 °C 25.1 °F /  -3.8 °C 30.14in /  1020.5hPa Calm     88% 0.00in /  0mm WeatherDisplay:10.37 W/m2 CLR
01:20 28.3 °F /  -2.1 °C 25.2 °F /  -3.8 °C 30.14in /  1020.5hPa Calm     88% 0.00in /  0mm WeatherDisplay:10.37 W/m2 CLR
01:25 28.3 °F /  -2.1 °C 24.9 °F /  -3.9 °C 30.13in /  1020.2hPa Calm     87% 0.00in /  0mm WeatherDisplay:10.37 W/m2 CLR
01:30 28.3 °F /  -2.1 °C 25.2 °F /  -3.8 °C 30.13in /  1020.2hPa Calm     88% 0.00in /  0mm WeatherDisplay:10.37 W/m2 CLR
01:35 28.3 °F /  -2.1 °C 25.2 °F /  -3.8 °C 30.12in /  1019.9hPa Calm     88% 0.00in /  0mm WeatherDisplay:10.37 W/m2 CLR
01:40 28.3 °F /  -2.1 °C 25.2 °F /  -3.8 °C 30.13in /  1020.2hPa Calm     88% 0.00in /  0mm WeatherDisplay:10.37 W/m2 CLR
01:45 28.3 °F /  -2.1 °C 25.2 °F /  -3.8 °C 30.13in /  1020.2hPa Calm     88% 0.00in /  0mm WeatherDisplay:10.37 W/m2 CLR
01:50 28.3 °F /  -2.1 °C 25.2 °F /  -3.8 °C 30.12in /  1019.9hPa Calm     88% 0.00in /  0mm WeatherDisplay:10.37 W/m2 CLR
01:55 28.3 °F /  -2.1 °C 25.2 °F /  -3.8 °C 30.12in /  1019.9hPa Calm     88% 0.00in /  0mm WeatherDisplay:10.37 W/m2 CLR
02:00 28.3 °F /  -2.1 °C 25.2 °F /  -3.8 °C 30.13in /  1020.2hPa Calm     88% 0.00in /  0mm WeatherDisplay:10.37 W/m2 CLR
02:05 28.4 °F /  -2 °C 25.3 °F /  -3.7 °C 30.13in /  1020.2hPa Calm     88% 0.00in /  0mm WeatherDisplay:10.37 W/m2 SCT
02:10 28.4 °F /  -2 °C 25.3 °F /  -3.7 °C 30.13in /  1020.2hPa Calm     88% 0.00in /  0mm WeatherDisplay:10.37 W/m2 SCT
02:15 28.4 °F /  -2 °C 25.3 °F /  -3.7 °C 30.14in /  1020.5hPa Calm     88% 0.00in /  0mm WeatherDisplay:10.37 W/m2 SCT
02:26 28.5 °F /  -1.9 °C 25.4 °F /  -3.7 °C 30.13in /  1020.2hPa Calm     88% 0.00in /  0mm WeatherDisplay:10.37 W/m2 BKN
02:31 28.5 °F /  -1.9 °C 25.4 °F /  -3.7 °C 30.14in /  1020.5hPa Calm     88% 0.00in /  0mm WeatherDisplay:10.37 W/m2 BKN
02:36 28.6 °F /  -1.9 °C 25.8 °F /  -3.4 °C 30.13in /  1020.2hPa Calm     89% 0.00in /  0mm WeatherDisplay:10.37 W/m2 BKN
02:41 28.6 °F /  -1.9 °C 25.8 °F /  -3.4 °C 30.13in /  1020.2hPa Calm     89% 0.00in /  0mm WeatherDisplay:10.37 W/m2 BKN
02:46 28.6 °F /  -1.9 °C 25.5 °F /  -3.6 °C 30.13in /  1020.2hPa Calm     88% 0.00in /  0mm WeatherDisplay:10.37 W/m2 OVC
02:51 28.6 °F /  -1.9 °C 25.5 °F /  -3.6 °C 30.13in /  1020.2hPa Calm     88% 0.00in /  0mm WeatherDisplay:10.37 W/m2 OVC
02:56 28.6 °F /  -1.9 °C 25.5 °F /  -3.6 °C 30.13in /  1020.2hPa Calm     88% 0.00in /  0mm WeatherDisplay:10.37 W/m2 OVC
03:01 28.6 °F /  -1.9 °C 25.5 °F /  -3.6 °C 30.14in /  1020.5hPa Calm     88% 0.00in /  0mm WeatherDisplay:10.37 W/m2 OVC
03:06 28.5 °F /  -1.9 °C 25.4 °F /  -3.7 °C 30.14in /  1020.5hPa Calm     88% 0.00in /  0mm WeatherDisplay:10.37 W/m2 OVC
03:16 28.5 °F /  -1.9 °C 25.4 °F /  -3.7 °C 30.13in /  1020.2hPa Calm     88% 0.00in /  0mm WeatherDisplay:10.37 W/m2 OVC
03:27 28.4 °F /  -2 °C 25.3 °F /  -3.7 °C 30.13in /  1020.2hPa Calm     88% 0.00in /  0mm WeatherDisplay:10.37 W/m2 OVC
03:32 28.4 °F /  -2 °C 25.3 °F /  -3.7 °C 30.13in /  1020.2hPa Calm     88% 0.00in /  0mm WeatherDisplay:10.37 W/m2 OVC
03:37 28.4 °F /  -2 °C 25.6 °F /  -3.6 °C 30.13in /  1020.2hPa Calm     89% 0.00in /  0mm WeatherDisplay:10.37 W/m2 OVC
03:42 28.6 °F /  -1.9 °C 25.5 °F /  -3.6 °C 30.13in /  1020.2hPa Calm     88% 0.00in /  0mm WeatherDisplay:10.37 W/m2 OVC
03:47 28.7 °F /  -1.8 °C 25.3 °F /  -3.7 °C 30.12in /  1019.9hPa Calm     87% 0.00in /  0mm WeatherDisplay:10.37 W/m2 OVC
04:08 29.2 °F /  -1.6 °C 25.3 °F /  -3.7 °C 30.13in /  1020.2hPa Calm     85% 0.00in /  0mm WeatherDisplay:10.37 W/m2 OVC
04:13 29.4 °F /  -1.4 °C 25.4 °F /  -3.7 °C 30.13in /  1020.2hPa Calm     85% 0.00in /  0mm WeatherDisplay:10.37 W/m2 OVC
04:18 29.5 °F /  -1.4 °C 25.5 °F /  -3.6 °C 30.13in /  1020.2hPa Calm     85% 0.00in /  0mm WeatherDisplay:10.37 W/m2 OVC
04:23 29.7 °F /  -1.3 °C 25.7 °F /  -3.5 °C 30.13in /  1020.2hPa Calm     85% 0.00in /  0mm WeatherDisplay:10.37 W/m2 OVC
04:28 29.8 °F /  -1.2 °C 25.6 °F /  -3.6 °C 30.14in /  1020.5hPa Calm     84% 0.00in /  0mm WeatherDisplay:10.37 W/m2 OVC
04:33 29.9 °F /  -1.2 °C 25.4 °F /  -3.7 °C 30.14in /  1020.5hPa Calm     83% 0.00in /  0mm WeatherDisplay:10.37 W/m2 OVC
04:38 29.9 °F /  -1.2 °C 25.4 °F /  -3.7 °C 30.14in /  1020.5hPa Calm     83% 0.00in /  0mm WeatherDisplay:10.37 W/m2 OVC
04:43 29.9 °F /  -1.2 °C 25.4 °F /  -3.7 °C 30.13in /  1020.2hPa Calm     83% 0.00in /  0mm WeatherDisplay:10.37 W/m2 OVC
04:48 29.9 °F /  -1.2 °C 25.4 °F /  -3.7 °C 30.13in /  1020.2hPa Calm     83% 0.00in /  0mm WeatherDisplay:10.37 W/m2 OVC
04:53 29.9 °F /  -1.2 °C 25.4 °F /  -3.7 °C 30.13in /  1020.2hPa Calm     83% 0.00in /  0mm WeatherDisplay:10.37 W/m2 OVC
04:58 29.8 °F /  -1.2 °C 25.3 °F /  -3.7 °C 30.12in /  1019.9hPa Calm     83% 0.00in /  0mm WeatherDisplay:10.37 W/m2 OVC
05:03 29.8 °F /  -1.2 °C 25.3 °F /  -3.7 °C 30.13in /  1020.2hPa Calm     83% 0.00in /  0mm WeatherDisplay:10.37 W/m2 OVC
05:08 29.8 °F /  -1.2 °C 25.3 °F /  -3.7 °C 30.12in /  1019.9hPa Calm     83% 0.00in /  0mm WeatherDisplay:10.37 W/m2 OVC
05:13 29.8 °F /  -1.2 °C 25.6 °F /  -3.6 °C 30.12in /  1019.9hPa Calm     84% 0.00in /  0mm WeatherDisplay:10.37 W/m2 OVC
05:18 29.8 °F /  -1.2 °C 25.6 °F /  -3.6 °C 30.12in /  1019.9hPa Calm     84% 0.00in /  0mm WeatherDisplay:10.37 W/m2 OVC
05:23 29.8 °F /  -1.2 °C 25.8 °F /  -3.4 °C 30.13in /  1020.2hPa Calm     85% 0.00in /  0mm WeatherDisplay:10.37 W/m2 OVC
05:28 29.8 °F /  -1.2 °C 25.6 °F /  -3.6 °C 30.12in /  1019.9hPa Calm     84% 0.00in /  0mm WeatherDisplay:10.37 W/m2 OVC
05:33 29.8 °F /  -1.2 °C 25.8 °F /  -3.4 °C 30.12in /  1019.9hPa Calm     85% 0.00in /  0mm WeatherDisplay:10.37 W/m2 OVC
05:38 29.7 °F /  -1.3 °C 25.5 °F /  -3.6 °C 30.12in /  1019.9hPa Calm     84% 0.00in /  0mm WeatherDisplay:10.37 W/m2 OVC
05:43 29.8 °F /  -1.2 °C 25.3 °F /  -3.7 °C 30.11in /  1019.5hPa Calm     83% 0.00in /  0mm WeatherDisplay:10.37 W/m2 OVC
05:48 29.9 °F /  -1.2 °C 25.7 °F /  -3.5 °C 30.12in /  1019.9hPa Calm     84% 0.00in /  0mm WeatherDisplay:10.37 W/m2 OVC
05:53 29.9 °F /  -1.2 °C 25.7 °F /  -3.5 °C 30.11in /  1019.5hPa Calm     84% 0.00in /  0mm WeatherDisplay:10.37 W/m2 OVC
05:58 29.9 °F /  -1.2 °C 25.7 °F /  -3.5 °C 30.11in /  1019.5hPa Calm     84% 0.00in /  0mm WeatherDisplay:10.37 W/m2 OVC
06:03 29.8 °F /  -1.2 °C 25.6 °F /  -3.6 °C 30.11in /  1019.5hPa Calm     84% 0.00in /  0mm WeatherDisplay:10.37 W/m2 OVC
06:08 29.7 °F /  -1.3 °C 25.7 °F /  -3.5 °C 30.10in /  1019.2hPa Calm     85% 0.00in /  0mm WeatherDisplay:10.37 W/m2 OVC
06:13 29.7 °F /  -1.3 °C 25.7 °F /  -3.5 °C 30.10in /  1019.2hPa Calm     85% 0.00in /  0mm WeatherDisplay:10.37 W/m2 OVC
06:18 29.6 °F /  -1.3 °C 25.9 °F /  -3.4 °C 30.11in /  1019.5hPa Calm     86% 0.00in /  0mm WeatherDisplay:10.37 W/m2 OVC
06:23 29.5 °F /  -1.4 °C 25.8 °F /  -3.4 °C 30.12in /  1019.9hPa Calm     86% 0.00in /  0mm WeatherDisplay:10.37 W/m2 OVC
06:28 29.4 °F /  -1.4 °C 26.0 °F /  -3.3 °C 30.12in /  1019.9hPa Calm     87% 0.00in /  0mm WeatherDisplay:10.37 W/m2 OVC
06:33 29.4 °F /  -1.4 °C 26.0 °F /  -3.3 °C 30.11in /  1019.5hPa Calm     87% 0.00in /  0mm WeatherDisplay:10.37 W/m2 OVC
06:38 29.3 °F /  -1.5 °C 25.9 °F /  -3.4 °C 30.11in /  1019.5hPa Calm     87% 0.00in /  0mm WeatherDisplay:10.37 W/m2 OVC
06:43 29.2 °F /  -1.6 °C 26.1 °F /  -3.3 °C 30.12in /  1019.9hPa Calm     88% 0.00in /  0mm WeatherDisplay:10.37 W/m2 OVC
06:48 29.2 °F /  -1.6 °C 26.1 °F /  -3.3 °C 30.12in /  1019.9hPa Calm     88% 0.00in /  0mm WeatherDisplay:10.37 W/m2 OVC
06:53 29.2 °F /  -1.6 °C 26.1 °F /  -3.3 °C 30.12in /  1019.9hPa Calm     88% 0.00in /  0mm WeatherDisplay:10.37 W/m2 OVC
06:58 29.1 °F /  -1.6 °C 26.0 °F /  -3.3 °C 30.11in /  1019.5hPa Calm     88% 0.00in /  0mm WeatherDisplay:10.37 W/m2 OVC
07:03 29.1 °F /  -1.6 °C 26.0 °F /  -3.3 °C 30.11in /  1019.5hPa Calm     88% 0.00in /  0mm WeatherDisplay:10.37 W/m2 OVC
07:08 29.0 °F /  -1.7 °C 25.9 °F /  -3.4 °C 30.11in /  1019.5hPa Calm     88% 0.00in /  0mm WeatherDisplay:10.37 W/m2 OVC
07:13 28.9 °F /  -1.7 °C 25.8 °F /  -3.4 °C 30.12in /  1019.9hPa Calm     88% 0.00in /  0mm WeatherDisplay:10.37 W/m2 -SN
07:18 28.9 °F /  -1.7 °C 25.8 °F /  -3.4 °C 30.11in /  1019.5hPa Calm     88% 0.00in /  0mm WeatherDisplay:10.37 W/m2 -SN
07:23 28.8 °F /  -1.8 °C 25.7 °F /  -3.5 °C 30.12in /  1019.9hPa Calm     88% 0.00in /  0mm WeatherDisplay:10.37 W/m2 -SN
07:28 28.8 °F /  -1.8 °C 25.7 °F /  -3.5 °C 30.12in /  1019.9hPa Calm     88% 0.00in /  0mm WeatherDisplay:10.37 W/m2 -SN
07:33 28.9 °F /  -1.7 °C 25.8 °F /  -3.4 °C 30.12in /  1019.9hPa Calm     88% 0.00in /  0mm WeatherDisplay:10.37 W/m2 -SN
07:38 28.8 °F /  -1.8 °C 25.7 °F /  -3.5 °C 30.11in /  1019.5hPa Calm     88% 0.00in /  0mm WeatherDisplay:10.37 W/m2 -SN
07:43 28.8 °F /  -1.8 °C 25.7 °F /  -3.5 °C 30.11in /  1019.5hPa Calm     88% 0.00in /  0mm WeatherDisplay:10.37 W/m2 -SN
07:48 28.8 °F /  -1.8 °C 25.7 °F /  -3.5 °C 30.12in /  1019.9hPa Calm     88% 0.00in /  0mm WeatherDisplay:10.37 W/m2 -SN
07:53 28.8 °F /  -1.8 °C 26.0 °F /  -3.3 °C 30.13in /  1020.2hPa Calm     89% 0.00in /  0mm WeatherDisplay:10.37 W/m2 -SN
07:58 28.8 °F /  -1.8 °C 26.0 °F /  -3.3 °C 30.12in /  1019.9hPa Calm     89% 0.00in /  0mm WeatherDisplay:10.37 W/m2 -SN
08:03 28.8 °F /  -1.8 °C 26.0 °F /  -3.3 °C 30.13in /  1020.2hPa Calm     89% 0.00in /  0mm WeatherDisplay:10.37 W/m2 -SN
08:08 28.8 °F /  -1.8 °C 25.7 °F /  -3.5 °C 30.13in /  1020.2hPa Calm     88% 0.00in /  0mm WeatherDisplay:10.37 W/m2 -SN
08:13 28.7 °F /  -1.8 °C 25.6 °F /  -3.6 °C 30.13in /  1020.2hPa Calm     88% 0.00in /  0mm WeatherDisplay:10.37 W/m2 -SN
08:18 28.8 °F /  -1.8 °C 25.7 °F /  -3.5 °C 30.13in /  1020.2hPa Calm     88% 0.00in /  0mm WeatherDisplay:10.37 W/m2 -SN
08:23 28.8 °F /  -1.8 °C 25.7 °F /  -3.5 °C 30.13in /  1020.2hPa Calm     88% 0.00in /  0mm WeatherDisplay:10.37 W/m2 -SN
08:28 28.8 °F /  -1.8 °C 25.7 °F /  -3.5 °C 30.13in /  1020.2hPa Calm     88% 0.00in /  0mm WeatherDisplay:10.37 W/m2 -SN
08:33 28.8 °F /  -1.8 °C 25.7 °F /  -3.5 °C 30.13in /  1020.2hPa Calm     88% 0.00in /  0mm WeatherDisplay:10.37 W/m2 -SN
08:38 28.9 °F /  -1.7 °C 25.8 °F /  -3.4 °C 30.12in /  1019.9hPa Calm     88% 0.00in /  0mm WeatherDisplay:10.37 W/m2 -SN
08:43 29.0 °F /  -1.7 °C 25.9 °F /  -3.4 °C 30.12in /  1019.9hPa Calm     88% 0.00in /  0mm WeatherDisplay:10.37 W/m2 -SN
08:48 29.0 °F /  -1.7 °C 25.9 °F /  -3.4 °C 30.12in /  1019.9hPa Calm     88% 0.00in /  0mm WeatherDisplay:10.37 W/m2 -SN
08:53 29.1 °F /  -1.6 °C 26.0 °F /  -3.3 °C 30.11in /  1019.5hPa Calm     88% 0.00in /  0mm WeatherDisplay:10.37 W/m2 -SN
08:58 29.4 °F /  -1.4 °C 26.3 °F /  -3.2 °C 30.12in /  1019.9hPa ESE 2.3mph /  3.7km/h 2.3mph /  3.7km/h 88% 0.00in /  0mm WeatherDisplay:10.37 W/m2 -SN
09:03 29.5 °F /  -1.4 °C 26.4 °F /  -3.1 °C 30.12in /  1019.9hPa ESE 2.3mph /  3.7km/h 2.3mph /  3.7km/h 88% 0.00in /  0mm WeatherDisplay:10.37 W/m2 -SN
09:08 29.6 °F /  -1.3 °C 26.5 °F /  -3.1 °C 30.12in /  1019.9hPa ESE 2.3mph /  3.7km/h 2.3mph /  3.7km/h 88% 0.00in /  0mm WeatherDisplay:10.37 W/m2 -SN
09:13 29.6 °F /  -1.3 °C 26.2 °F /  -3.2 °C 30.13in /  1020.2hPa ESE 2.3mph /  3.7km/h 2.3mph /  3.7km/h 87% 0.00in /  0mm WeatherDisplay:10.37 W/m2 -SN
09:18 29.6 °F /  -1.3 °C 26.2 °F /  -3.2 °C 30.13in /  1020.2hPa ESE 2.3mph /  3.7km/h 2.3mph /  3.7km/h 87% 0.00in /  0mm WeatherDisplay:10.37 W/m2 -SN
09:28 29.7 °F /  -1.3 °C 26.3 °F /  -3.2 °C 30.15in /  1020.9hPa ESE 1.2mph /  1.9km/h   87% 0.00in /  0mm WeatherDisplay:10.37 W/m2 OVC
09:33 29.7 °F /  -1.3 °C 26.0 °F /  -3.3 °C 30.15in /  1020.9hPa ESE 1.2mph /  1.9km/h   86% 0.00in /  0mm WeatherDisplay:10.37 W/m2 OVC
09:38 29.7 °F /  -1.3 °C 26.0 °F /  -3.3 °C 30.15in /  1020.9hPa Calm     86% 0.00in /  0mm WeatherDisplay:10.37 W/m2 OVC
09:43 29.7 °F /  -1.3 °C 26.0 °F /  -3.3 °C 30.15in /  1020.9hPa Calm     86% 0.00in /  0mm WeatherDisplay:10.37 W/m2 OVC
09:48 29.8 °F /  -1.2 °C 26.1 °F /  -3.3 °C 30.16in /  1021.2hPa ESE 2.0mph /  3.2km/h 2.0mph /  3.2km/h 86% 0.00in /  0mm WeatherDisplay:10.37 W/m2 OVC
09:53 29.9 °F /  -1.2 °C 26.2 °F /  -3.2 °C 30.16in /  1021.2hPa ESE 1.2mph /  1.9km/h 1.2mph /  1.9km/h 86% 0.00in /  0mm WeatherDisplay:10.37 W/m2 OVC
09:58 29.9 °F /  -1.2 °C 25.9 °F /  -3.4 °C 30.16in /  1021.2hPa ESE 2.3mph /  3.7km/h 2.3mph /  3.7km/h 85% 0.00in /  0mm WeatherDisplay:10.37 W/m2 OVC
10:03 30.0 °F /  -1.1 °C 26.0 °F /  -3.3 °C 30.16in /  1021.2hPa ESE 2.3mph /  3.7km/h 2.3mph /  3.7km/h 85% 0.00in /  0mm WeatherDisplay:10.37 W/m2 OVC
10:08 30.0 °F /  -1.1 °C 25.8 °F /  -3.4 °C 30.16in /  1021.2hPa ESE 1.2mph /  1.9km/h 1.2mph /  1.9km/h 84% 0.00in /  0mm WeatherDisplay:10.37 W/m2 OVC
10:13 30.1 °F /  -1.1 °C 25.8 °F /  -3.4 °C 30.15in /  1020.9hPa ESE 1.2mph /  1.9km/h 1.2mph /  1.9km/h 84% 0.00in /  0mm WeatherDisplay:10.37 W/m2 OVC
10:18 30.1 °F /  -1.1 °C 25.8 °F /  -3.4 °C 30.15in /  1020.9hPa ESE 2.3mph /  3.7km/h 2.3mph /  3.7km/h 84% 0.00in /  0mm WeatherDisplay:10.37 W/m2 OVC
10:23 30.2 °F /  -1 °C 26.2 °F /  -3.2 °C 30.15in /  1020.9hPa ESE 2.3mph /  3.7km/h 2.3mph /  3.7km/h 85% 0.00in /  0mm WeatherDisplay:10.37 W/m2 OVC
10:28 30.2 °F /  -1 °C 26.2 °F /  -3.2 °C 30.15in /  1020.9hPa ESE 2.3mph /  3.7km/h 2.3mph /  3.7km/h 85% 0.00in /  0mm WeatherDisplay:10.37 W/m2 OVC
10:33 30.3 °F /  -0.9 °C 26.3 °F /  -3.2 °C 30.15in /  1020.9hPa ESE 1.2mph /  1.9km/h 1.2mph /  1.9km/h 85% 0.00in /  0mm WeatherDisplay:10.37 W/m2 OVC
10:38 30.3 °F /  -0.9 °C 26.3 °F /  -3.2 °C 30.14in /  1020.5hPa ESE 2.3mph /  3.7km/h   85% 0.00in /  0mm WeatherDisplay:10.37 W/m2 OVC
10:43 30.3 °F /  -0.9 °C 26.3 °F /  -3.2 °C 30.14in /  1020.5hPa Calm   0.2mph /  0.3km/h 85% 0.00in /  0mm WeatherDisplay:10.37 W/m2 OVC
10:48 30.3 °F /  -0.9 °C 26.6 °F /  -3 °C 30.14in /  1020.5hPa ESE 1.2mph /  1.9km/h   86% 0.00in /  0mm WeatherDisplay:10.37 W/m2 -SN
10:53 30.1 °F /  -1.1 °C 26.7 °F /  -2.9 °C 30.13in /  1020.2hPa Calm     87% 0.00in /  0mm WeatherDisplay:10.37 W/m2 -SN
10:58 30.1 °F /  -1.1 °C 26.7 °F /  -2.9 °C 30.14in /  1020.5hPa Calm     87% 0.00in /  0mm WeatherDisplay:10.37 W/m2 -SN
11:03 30.1 °F /  -1.1 °C 27.0 °F /  -2.8 °C 30.14in /  1020.5hPa Calm     88% 0.00in /  0mm WeatherDisplay:10.37 W/m2 -SN
11:08 30.1 °F /  -1.1 °C 27.3 °F /  -2.6 °C 30.14in /  1020.5hPa Calm     89% 0.00in /  0mm WeatherDisplay:10.37 W/m2 -SN
11:13 30.0 °F /  -1.1 °C 27.2 °F /  -2.7 °C 30.13in /  1020.2hPa Calm     89% 0.00in /  0mm WeatherDisplay:10.37 W/m2 -SN
11:18 30.0 °F /  -1.1 °C 27.4 °F /  -2.6 °C 30.13in /  1020.2hPa Calm     90% 0.00in /  0mm WeatherDisplay:10.37 W/m2 -SN
11:23 30.0 °F /  -1.1 °C 27.4 °F /  -2.6 °C 30.13in /  1020.2hPa Calm     90% 0.00in /  0mm WeatherDisplay:10.37 W/m2 -SN
11:28 29.9 °F /  -1.2 °C 27.3 °F /  -2.6 °C 30.12in /  1019.9hPa Calm     90% 0.00in /  0mm WeatherDisplay:10.37 W/m2 -SN
11:33 29.9 °F /  -1.2 °C 27.3 °F /  -2.6 °C 30.12in /  1019.9hPa Calm     90% 0.00in /  0mm WeatherDisplay:10.37 W/m2 -SN
11:38 30.0 °F /  -1.1 °C 27.4 °F /  -2.6 °C 30.12in /  1019.9hPa Calm     90% 0.00in /  0mm WeatherDisplay:10.37 W/m2 -SN
11:43 30.1 °F /  -1.1 °C 27.5 °F /  -2.5 °C 30.11in /  1019.5hPa Calm     90% 0.00in /  0mm WeatherDisplay:10.37 W/m2 -SN
11:48 30.1 °F /  -1.1 °C 27.5 °F /  -2.5 °C 30.11in /  1019.5hPa Calm     90% 0.00in /  0mm WeatherDisplay:10.37 W/m2 -SN
11:53 30.2 °F /  -1 °C 27.6 °F /  -2.4 °C 30.11in /  1019.5hPa Calm     90% 0.00in /  0mm WeatherDisplay:10.37 W/m2 -SN
11:58 30.1 °F /  -1.1 °C 27.5 °F /  -2.5 °C 30.11in /  1019.5hPa Calm     90% 0.00in /  0mm WeatherDisplay:10.37 W/m2 -SN
12:08 30.1 °F /  -1.1 °C 27.5 °F /  -2.5 °C 30.11in /  1019.5hPa Calm     90% 0.00in /  0mm WeatherDisplay:10.37 W/m2 -SN
12:18 30.1 °F /  -1.1 °C 27.8 °F /  -2.3 °C 30.11in /  1019.5hPa West 1.2mph /  1.9km/h 1.2mph /  1.9km/h 91% 0.00in /  0mm WeatherDisplay:10.37 W/m2 -SN
12:23 29.9 °F /  -1.2 °C 27.3 °F /  -2.6 °C 30.10in /  1019.2hPa West 2.3mph /  3.7km/h 2.3mph /  3.7km/h 90% 0.00in /  0mm WeatherDisplay:10.37 W/m2 -SN
12:28 29.9 °F /  -1.2 °C 27.3 °F /  -2.6 °C 30.10in /  1019.2hPa West 2.3mph /  3.7km/h 2.3mph /  3.7km/h 90% 0.00in /  0mm WeatherDisplay:10.37 W/m2 -SN
12:29 29.9 °F /  -1.2 °C 27.3 °F /  -2.6 °C 30.10in /  1019.2hPa West 2.3mph /  3.7km/h 2.3mph /  3.7km/h 90% 0.00in /  0mm WeatherDisplay:10.37 W/m2 -SN
12:34 29.8 °F /  -1.2 °C 27.5 °F /  -2.5 °C 30.08in /  1018.5hPa West 1.2mph /  1.9km/h 1.2mph /  1.9km/h 91% 0.00in /  0mm WeatherDisplay:10.37 W/m2 -SN
12:39 29.9 °F /  -1.2 °C 27.6 °F /  -2.4 °C 30.07in /  1018.2hPa North 2.3mph /  3.7km/h 2.3mph /  3.7km/h 91% 0.00in /  0mm WeatherDisplay:10.37 W/m2 -SN
12:44 29.8 °F /  -1.2 °C 27.5 °F /  -2.5 °C 30.08in /  1018.5hPa North 3.5mph /  5.6km/h 3.5mph /  5.6km/h 91% 0.00in /  0mm WeatherDisplay:10.37 W/m2 -SN
12:49 29.9 °F /  -1.2 °C 27.6 °F /  -2.4 °C 30.07in /  1018.2hPa North 2.3mph /  3.7km/h 2.3mph /  3.7km/h 91% 0.00in /  0mm WeatherDisplay:10.37 W/m2 -SN
12:54 29.8 °F /  -1.2 °C 27.8 °F /  -2.3 °C 30.07in /  1018.2hPa North 2.3mph /  3.7km/h 2.3mph /  3.7km/h 92% 0.00in /  0mm WeatherDisplay:10.37 W/m2 -SN
13:04 29.8 °F /  -1.2 °C 27.8 °F /  -2.3 °C 30.09in /  1018.8hPa Calm     92% 0.00in /  0mm WeatherDisplay:10.37 W/m2 -SN
13:09 29.8 °F /  -1.2 °C 27.8 °F /  -2.3 °C 30.09in /  1018.8hPa Calm     92% 0.00in /  0mm WeatherDisplay:10.37 W/m2 -SN
13:14 29.8 °F /  -1.2 °C 27.8 °F /  -2.3 °C 30.09in /  1018.8hPa Calm     92% 0.00in /  0mm WeatherDisplay:10.37 W/m2 -SN
13:19 29.7 °F /  -1.3 °C 27.4 °F /  -2.6 °C 30.09in /  1018.8hPa Calm     91% 0.00in /  0mm WeatherDisplay:10.37 W/m2 -SN
13:24 29.7 °F /  -1.3 °C 27.4 °F /  -2.6 °C 30.10in /  1019.2hPa Calm     91% 0.00in /  0mm WeatherDisplay:10.37 W/m2 -SN
13:29 29.7 °F /  -1.3 °C 27.7 °F /  -2.4 °C 30.09in /  1018.8hPa WSW 1.0mph /  1.6km/h   92% 0.00in /  0mm WeatherDisplay:10.37 W/m2 -SN
13:34 29.7 °F /  -1.3 °C 27.7 °F /  -2.4 °C 30.09in /  1018.8hPa WSW 3.0mph /  4.8km/h 3.0mph /  4.8km/h 92% 0.00in /  0mm WeatherDisplay:10.37 W/m2 -SN
13:39 29.7 °F /  -1.3 °C 27.7 °F /  -2.4 °C 30.08in /  1018.5hPa WSW 2.3mph /  3.7km/h 2.3mph /  3.7km/h 92% 0.00in /  0mm WeatherDisplay:10.37 W/m2 -SN
13:44 29.5 °F /  -1.4 °C 27.5 °F /  -2.5 °C 30.07in /  1018.2hPa SW 3.5mph /  5.6km/h 3.5mph /  5.6km/h 92% 0.00in /  0mm WeatherDisplay:10.37 W/m2 -SN
13:49 29.3 °F /  -1.5 °C 27.0 °F /  -2.8 °C 30.08in /  1018.5hPa SW 3.5mph /  5.6km/h 3.5mph /  5.6km/h 91% 0.00in /  0mm WeatherDisplay:10.37 W/m2 -SN
13:54 29.2 °F /  -1.6 °C 27.2 °F /  -2.7 °C 30.08in /  1018.5hPa SW 3.5mph /  5.6km/h 3.5mph /  5.6km/h 92% 0.00in /  0mm WeatherDisplay:10.37 W/m2 -SN
13:59 29.4 °F /  -1.4 °C 27.4 °F /  -2.6 °C 30.09in /  1018.8hPa SW 3.5mph /  5.6km/h 3.5mph /  5.6km/h 92% 0.00in /  0mm WeatherDisplay:10.37 W/m2 -SN
14:04 29.4 °F /  -1.4 °C 27.4 °F /  -2.6 °C 30.09in /  1018.8hPa SW 3.5mph /  5.6km/h 3.5mph /  5.6km/h 92% 0.00in /  0mm WeatherDisplay:10.37 W/m2 -SN
14:05 29.4 °F /  -1.4 °C 27.4 °F /  -2.6 °C 30.09in /  1018.8hPa SW 3.5mph /  5.6km/h 3.5mph /  5.6km/h 92% 0.00in /  0mm WeatherDisplay:10.37 W/m2 -SN
14:10 29.4 °F /  -1.4 °C 27.4 °F /  -2.6 °C 30.08in /  1018.5hPa SW 2.3mph /  3.7km/h 2.3mph /  3.7km/h 92% 0.00in /  0mm WeatherDisplay:10.37 W/m2 -SN
14:15 29.4 °F /  -1.4 °C 27.4 °F /  -2.6 °C 30.07in /  1018.2hPa SW 2.3mph /  3.7km/h 2.3mph /  3.7km/h 92% 0.00in /  0mm WeatherDisplay:10.37 W/m2 -SN
14:20 29.4 °F /  -1.4 °C 27.4 °F /  -2.6 °C 30.07in /  1018.2hPa SW 2.3mph /  3.7km/h 2.3mph /  3.7km/h 92% 0.00in /  0mm WeatherDisplay:10.37 W/m2 -SN
14:25 29.5 °F /  -1.4 °C 27.5 °F /  -2.5 °C 30.07in /  1018.2hPa SW 1.2mph /  1.9km/h   92% 0.00in /  0mm WeatherDisplay:10.37 W/m2 -SN
14:30 29.5 °F /  -1.4 °C 27.5 °F /  -2.5 °C 30.08in /  1018.5hPa SW 2.0mph /  3.2km/h   92% 0.00in /  0mm WeatherDisplay:10.37 W/m2 -SN
14:35 29.6 °F /  -1.3 °C 27.6 °F /  -2.4 °C 30.07in /  1018.2hPa SW 2.3mph /  3.7km/h 2.3mph /  3.7km/h 92% 0.00in /  0mm WeatherDisplay:10.37 W/m2 -SN
14:40 29.6 °F /  -1.3 °C 27.3 °F /  -2.6 °C 30.07in /  1018.2hPa SW 2.3mph /  3.7km/h 2.3mph /  3.7km/h 91% 0.00in /  0mm WeatherDisplay:10.37 W/m2 -SN
14:45 29.6 °F /  -1.3 °C 27.3 °F /  -2.6 °C 30.06in /  1017.8hPa SW 2.3mph /  3.7km/h 2.3mph /  3.7km/h 91% 0.00in /  0mm WeatherDisplay:10.37 W/m2 -SN
14:50 29.6 °F /  -1.3 °C 27.3 °F /  -2.6 °C 30.05in /  1017.5hPa SW 3.5mph /  5.6km/h 3.5mph /  5.6km/h 91% 0.00in /  0mm WeatherDisplay:10.37 W/m2 -SN
14:55 29.4 °F /  -1.4 °C 26.8 °F /  -2.9 °C 30.06in /  1017.8hPa West 3.5mph /  5.6km/h 3.5mph /  5.6km/h 90% 0.00in /  0mm WeatherDisplay:10.37 W/m2 -SN
15:00 29.5 °F /  -1.4 °C 27.2 °F /  -2.7 °C 30.06in /  1017.8hPa West 2.3mph /  3.7km/h 2.3mph /  3.7km/h 91% 0.00in /  0mm WeatherDisplay:10.37 W/m2 -SN
15:05 29.6 °F /  -1.3 °C 27.3 °F /  -2.6 °C 30.06in /  1017.8hPa West 2.3mph /  3.7km/h 2.3mph /  3.7km/h 91% 0.00in /  0mm WeatherDisplay:10.37 W/m2 -SN
15:10 29.5 °F /  -1.4 °C 27.2 °F /  -2.7 °C 30.06in /  1017.8hPa WSW 3.0mph /  4.8km/h 3.0mph /  4.8km/h 91% 0.00in /  0mm WeatherDisplay:10.37 W/m2 -SN
15:15 29.5 °F /  -1.4 °C 27.2 °F /  -2.7 °C 30.06in /  1017.8hPa WSW 1.2mph /  1.9km/h 1.2mph /  1.9km/h 91% 0.00in /  0mm WeatherDisplay:10.37 W/m2 -SN
15:20 29.6 °F /  -1.3 °C 27.3 °F /  -2.6 °C 30.06in /  1017.8hPa NW 1.2mph /  1.9km/h 1.2mph /  1.9km/h 91% 0.00in /  0mm WeatherDisplay:10.37 W/m2 -SN
15:25 29.7 °F /  -1.3 °C 27.4 °F /  -2.6 °C 30.05in /  1017.5hPa NW 1.2mph /  1.9km/h 1.2mph /  1.9km/h 91% 0.00in /  0mm WeatherDisplay:10.37 W/m2 -SN
15:30 29.7 °F /  -1.3 °C 27.4 °F /  -2.6 °C 30.04in /  1017.2hPa NW 1.2mph /  1.9km/h 1.2mph /  1.9km/h 91% 0.00in /  0mm WeatherDisplay:10.37 W/m2 -SN
15:35 29.9 °F /  -1.2 °C 27.6 °F /  -2.4 °C 30.04in /  1017.2hPa Calm     91% 0.00in /  0mm WeatherDisplay:10.37 W/m2 -SN
15:40 30.0 °F /  -1.1 °C 27.4 °F /  -2.6 °C 30.05in /  1017.5hPa Calm     90% 0.00in /  0mm WeatherDisplay:10.37 W/m2 -SN
15:45 30.0 °F /  -1.1 °C 27.4 °F /  -2.6 °C 30.05in /  1017.5hPa Calm     90% 0.00in /  0mm WeatherDisplay:10.37 W/m2 -SN
15:50 29.9 °F /  -1.2 °C 27.3 °F /  -2.6 °C 30.05in /  1017.5hPa South 2.0mph /  3.2km/h   90% 0.00in /  0mm WeatherDisplay:10.37 W/m2 -SN
15:55 29.9 °F /  -1.2 °C 27.3 °F /  -2.6 °C 30.05in /  1017.5hPa South 2.3mph /  3.7km/h 2.3mph /  3.7km/h 90% 0.00in /  0mm WeatherDisplay:10.37 W/m2 -SN
16:00 30.1 °F /  -1.1 °C 27.8 °F /  -2.3 °C 30.04in /  1017.2hPa South 2.3mph /  3.7km/h 2.3mph /  3.7km/h 91% 0.00in /  0mm WeatherDisplay:10.37 W/m2 -SN
16:05 30.1 °F /  -1.1 °C 27.5 °F /  -2.5 °C 30.04in /  1017.2hPa South 2.3mph /  3.7km/h 2.3mph /  3.7km/h 90% 0.00in /  0mm WeatherDisplay:10.37 W/m2 -SN
16:10 30.2 °F /  -1 °C 27.6 °F /  -2.4 °C 30.03in /  1016.8hPa South 1.2mph /  1.9km/h 1.2mph /  1.9km/h 90% 0.00in /  0mm WeatherDisplay:10.37 W/m2 -SN
16:15 30.2 °F /  -1 °C 27.6 °F /  -2.4 °C 30.03in /  1016.8hPa SSE 1.2mph /  1.9km/h 1.2mph /  1.9km/h 90% 0.00in /  0mm WeatherDisplay:10.37 W/m2 OVC
16:20 30.3 °F /  -0.9 °C 27.7 °F /  -2.4 °C 30.03in /  1016.8hPa SSE 1.2mph /  1.9km/h 1.2mph /  1.9km/h 90% 0.00in /  0mm WeatherDisplay:10.37 W/m2 OVC
16:25 30.3 °F /  -0.9 °C 27.7 °F /  -2.4 °C 30.04in /  1017.2hPa SSE 2.3mph /  3.7km/h 2.3mph /  3.7km/h 90% 0.00in /  0mm WeatherDisplay:10.37 W/m2 OVC
16:30 30.2 °F /  -1 °C 27.6 °F /  -2.4 °C 30.04in /  1017.2hPa SSE 1.2mph /  1.9km/h 1.2mph /  1.9km/h 90% 0.00in /  0mm WeatherDisplay:10.37 W/m2 OVC
16:35 30.2 °F /  -1 °C 27.6 °F /  -2.4 °C 30.04in /  1017.2hPa SSE 1.2mph /  1.9km/h 1.2mph /  1.9km/h 90% 0.00in /  0mm WeatherDisplay:10.37 W/m2 OVC
16:40 30.1 °F /  -1.1 °C 27.3 °F /  -2.6 °C 30.04in /  1017.2hPa SSE 1.2mph /  1.9km/h 1.2mph /  1.9km/h 89% 0.00in /  0mm WeatherDisplay:10.37 W/m2 OVC
16:45 29.9 °F /  -1.2 °C 27.1 °F /  -2.7 °C 30.03in /  1016.8hPa SSE 1.2mph /  1.9km/h 1.2mph /  1.9km/h 89% 0.00in /  0mm WeatherDisplay:10.37 W/m2 OVC
16:50 29.9 °F /  -1.2 °C 27.1 °F /  -2.7 °C 30.03in /  1016.8hPa SSE 1.2mph /  1.9km/h 1.2mph /  1.9km/h 89% 0.00in /  0mm WeatherDisplay:10.37 W/m2 OVC
16:55 29.8 °F /  -1.2 °C 27.0 °F /  -2.8 °C 30.02in /  1016.5hPa Calm     89% 0.00in /  0mm WeatherDisplay:10.37 W/m2 OVC
17:00 29.9 °F /  -1.2 °C 27.1 °F /  -2.7 °C 30.03in /  1016.8hPa Calm     89% 0.00in /  0mm WeatherDisplay:10.37 W/m2 OVC
17:01 29.8 °F /  -1.2 °C 27.0 °F /  -2.8 °C 30.03in /  1016.8hPa Calm     89% 0.00in /  0mm WeatherDisplay:10.37 W/m2 OVC
17:06 29.8 °F /  -1.2 °C 27.0 °F /  -2.8 °C 30.03in /  1016.8hPa Calm     89% 0.00in /  0mm WeatherDisplay:10.37 W/m2 OVC
17:16 29.7 °F /  -1.3 °C 26.9 °F /  -2.8 °C 30.03in /  1016.8hPa Calm     89% 0.00in /  0mm WeatherDisplay:10.37 W/m2 OVC
17:21 29.8 °F /  -1.2 °C 27.2 °F /  -2.7 °C 30.03in /  1016.8hPa Calm     90% 0.00in /  0mm WeatherDisplay:10.37 W/m2 OVC
17:26 29.8 °F /  -1.2 °C 27.2 °F /  -2.7 °C 30.03in /  1016.8hPa Calm   0.1mph /  0.2km/h 90% 0.00in /  0mm WeatherDisplay:10.37 W/m2 OVC
17:41 29.8 °F /  -1.2 °C 27.2 °F /  -2.7 °C 30.02in /  1016.5hPa SSE 1.2mph /  1.9km/h 1.2mph /  1.9km/h 90% 0.00in /  0mm WeatherDisplay:10.37 W/m2 OVC
17:46 29.8 °F /  -1.2 °C 27.2 °F /  -2.7 °C 30.01in /  1016.1hPa SSE 1.2mph /  1.9km/h 1.2mph /  1.9km/h 90% 0.00in /  0mm WeatherDisplay:10.37 W/m2 OVC
17:47 29.8 °F /  -1.2 °C 27.2 °F /  -2.7 °C 30.01in /  1016.1hPa SSE 1.2mph /  1.9km/h   90% 0.00in /  0mm WeatherDisplay:10.37 W/m2 OVC
17:52 29.8 °F /  -1.2 °C 27.2 °F /  -2.7 °C 30.01in /  1016.1hPa Calm     90% 0.00in /  0mm WeatherDisplay:10.37 W/m2 OVC
17:57 29.8 °F /  -1.2 °C 27.2 °F /  -2.7 °C 30.01in /  1016.1hPa SSE 1.0mph /  1.6km/h 1.0mph /  1.6km/h 90% 0.00in /  0mm WeatherDisplay:10.37 W/m2 OVC
18:02 29.7 °F /  -1.3 °C 27.1 °F /  -2.7 °C 30.01in /  1016.1hPa SSE 1.2mph /  1.9km/h   90% 0.00in /  0mm WeatherDisplay:10.37 W/m2 OVC
18:07 29.8 °F /  -1.2 °C 27.2 °F /  -2.7 °C 30.01in /  1016.1hPa SSE 1.2mph /  1.9km/h   90% 0.00in /  0mm WeatherDisplay:10.37 W/m2 OVC
18:12 29.8 °F /  -1.2 °C 27.2 °F /  -2.7 °C 30.01in /  1016.1hPa Calm     90% 0.00in /  0mm WeatherDisplay:10.37 W/m2 OVC
18:22 29.8 °F /  -1.2 °C 27.5 °F /  -2.5 °C 30.01in /  1016.1hPa Calm     91% 0.00in /  0mm WeatherDisplay:10.37 W/m2 OVC
18:27 29.8 °F /  -1.2 °C 27.2 °F /  -2.7 °C 30.01in /  1016.1hPa Calm     90% 0.00in /  0mm WeatherDisplay:10.37 W/m2 OVC
18:32 29.7 °F /  -1.3 °C 27.1 °F /  -2.7 °C 30.01in /  1016.1hPa Calm     90% 0.00in /  0mm WeatherDisplay:10.37 W/m2 OVC
18:42 29.7 °F /  -1.3 °C 27.1 °F /  -2.7 °C 30.02in /  1016.5hPa Calm     90% 0.00in /  0mm WeatherDisplay:10.37 W/m2 OVC
18:47 29.7 °F /  -1.3 °C 27.1 °F /  -2.7 °C 30.03in /  1016.8hPa Calm     90% 0.00in /  0mm WeatherDisplay:10.37 W/m2 OVC
18:52 29.7 °F /  -1.3 °C 27.4 °F /  -2.6 °C 30.03in /  1016.8hPa SSW 2.3mph /  3.7km/h 2.3mph /  3.7km/h 91% 0.00in /  0mm WeatherDisplay:10.37 W/m2 OVC
18:57 29.7 °F /  -1.3 °C 27.4 °F /  -2.6 °C 30.03in /  1016.8hPa SSW 2.3mph /  3.7km/h 2.3mph /  3.7km/h 91% 0.00in /  0mm WeatherDisplay:10.37 W/m2 OVC
19:02 29.7 °F /  -1.3 °C 27.4 °F /  -2.6 °C 30.03in /  1016.8hPa SSW 1.2mph /  1.9km/h 1.2mph /  1.9km/h 91% 0.00in /  0mm WeatherDisplay:10.37 W/m2 OVC
19:07 29.6 °F /  -1.3 °C 27.3 °F /  -2.6 °C 30.03in /  1016.8hPa SSW 1.2mph /  1.9km/h 1.2mph /  1.9km/h 91% 0.00in /  0mm WeatherDisplay:10.37 W/m2 OVC
19:12 29.6 °F /  -1.3 °C 27.3 °F /  -2.6 °C 30.03in /  1016.8hPa SSW 1.2mph /  1.9km/h   91% 0.00in /  0mm WeatherDisplay:10.37 W/m2 OVC
19:32 29.6 °F /  -1.3 °C 27.6 °F /  -2.4 °C 30.03in /  1016.8hPa Calm     92% 0.00in /  0mm WeatherDisplay:10.37 W/m2 OVC
19:37 29.5 °F /  -1.4 °C 27.5 °F /  -2.5 °C 30.03in /  1016.8hPa Calm     92% 0.00in /  0mm WeatherDisplay:10.37 W/m2 OVC
19:42 29.5 °F /  -1.4 °C 27.5 °F /  -2.5 °C 30.02in /  1016.5hPa Calm     92% 0.00in /  0mm WeatherDisplay:10.37 W/m2 OVC
19:47 29.5 °F /  -1.4 °C 27.5 °F /  -2.5 °C 30.03in /  1016.8hPa Calm     92% 0.00in /  0mm WeatherDisplay:10.37 W/m2 OVC
19:58 29.6 °F /  -1.3 °C 27.6 °F /  -2.4 °C 30.03in /  1016.8hPa Calm     92% 0.00in /  0mm WeatherDisplay:10.37 W/m2 OVC
20:03 29.6 °F /  -1.3 °C 27.6 °F /  -2.4 °C 30.03in /  1016.8hPa Calm     92% 0.00in /  0mm WeatherDisplay:10.37 W/m2 OVC
20:08 29.6 °F /  -1.3 °C 27.6 °F /  -2.4 °C 30.02in /  1016.5hPa Calm     92% 0.00in /  0mm WeatherDisplay:10.37 W/m2 OVC
20:13 29.6 °F /  -1.3 °C 27.6 °F /  -2.4 °C 30.02in /  1016.5hPa Calm     92% 0.00in /  0mm WeatherDisplay:10.37 W/m2 OVC
20:18 29.7 °F /  -1.3 °C 27.7 °F /  -2.4 °C 30.03in /  1016.8hPa Calm     92% 0.00in /  0mm WeatherDisplay:10.37 W/m2 SCT
20:23 29.7 °F /  -1.3 °C 27.7 °F /  -2.4 °C 30.03in /  1016.8hPa Calm     92% 0.00in /  0mm WeatherDisplay:10.37 W/m2 BKN
20:28 29.8 °F /  -1.2 °C 27.8 °F /  -2.3 °C 30.03in /  1016.8hPa Calm     92% 0.00in /  0mm WeatherDisplay:10.37 W/m2 BKN
20:33 29.8 °F /  -1.2 °C 27.8 °F /  -2.3 °C 30.04in /  1017.2hPa Calm     92% 0.00in /  0mm WeatherDisplay:10.37 W/m2 BKN
20:38 29.8 °F /  -1.2 °C 27.8 °F /  -2.3 °C 30.05in /  1017.5hPa SSW 2.3mph /  3.7km/h 2.3mph /  3.7km/h 92% 0.00in /  0mm WeatherDisplay:10.37 W/m2 BKN
20:43 29.8 °F /  -1.2 °C 27.8 °F /  -2.3 °C 30.05in /  1017.5hPa SSW 3.5mph /  5.6km/h 3.5mph /  5.6km/h 92% 0.00in /  0mm WeatherDisplay:10.37 W/m2 BKN
20:48 29.8 °F /  -1.2 °C 27.8 °F /  -2.3 °C 30.05in /  1017.5hPa SSW 2.3mph /  3.7km/h 2.3mph /  3.7km/h 92% 0.00in /  0mm WeatherDisplay:10.37 W/m2 BKN
20:53 29.8 °F /  -1.2 °C 27.8 °F /  -2.3 °C 30.05in /  1017.5hPa SSW 2.3mph /  3.7km/h 2.3mph /  3.7km/h 92% 0.00in /  0mm WeatherDisplay:10.37 W/m2 OVC
20:58 29.8 °F /  -1.2 °C 27.8 °F /  -2.3 °C 30.05in /  1017.5hPa SSW 2.3mph /  3.7km/h 2.3mph /  3.7km/h 92% 0.00in /  0mm WeatherDisplay:10.37 W/m2 OVC
21:03 29.8 °F /  -1.2 °C 27.8 °F /  -2.3 °C 30.05in /  1017.5hPa SSW 2.3mph /  3.7km/h 2.3mph /  3.7km/h 92% 0.00in /  0mm WeatherDisplay:10.37 W/m2 OVC
21:08 29.9 °F /  -1.2 °C 27.9 °F /  -2.3 °C 30.04in /  1017.2hPa Calm     92% 0.00in /  0mm WeatherDisplay:10.37 W/m2 OVC
21:13 29.9 °F /  -1.2 °C 27.9 °F /  -2.3 °C 30.04in /  1017.2hPa Calm     92% 0.00in /  0mm WeatherDisplay:10.37 W/m2 OVC
21:18 29.8 °F /  -1.2 °C 27.8 °F /  -2.3 °C 30.04in /  1017.2hPa SSW 2.3mph /  3.7km/h 2.3mph /  3.7km/h 92% 0.00in /  0mm WeatherDisplay:10.37 W/m2 OVC
21:23 29.8 °F /  -1.2 °C 27.5 °F /  -2.5 °C 30.03in /  1016.8hPa SSW 2.3mph /  3.7km/h 2.3mph /  3.7km/h 91% 0.00in /  0mm WeatherDisplay:10.37 W/m2 OVC
21:28 29.8 °F /  -1.2 °C 27.5 °F /  -2.5 °C 30.02in /  1016.5hPa SSW 2.3mph /  3.7km/h 2.3mph /  3.7km/h 91% 0.00in /  0mm WeatherDisplay:10.37 W/m2 OVC
21:33 29.8 °F /  -1.2 °C 27.5 °F /  -2.5 °C 30.02in /  1016.5hPa SSW 2.3mph /  3.7km/h   91% 0.00in /  0mm WeatherDisplay:10.37 W/m2 OVC
21:38 29.7 °F /  -1.3 °C 27.4 °F /  -2.6 °C 30.02in /  1016.5hPa Calm   0.1mph /  0.2km/h 91% 0.00in /  0mm WeatherDisplay:10.37 W/m2 OVC
21:43 29.7 °F /  -1.3 °C 27.4 °F /  -2.6 °C 30.01in /  1016.1hPa SSW 1.2mph /  1.9km/h   91% 0.00in /  0mm WeatherDisplay:10.37 W/m2 OVC
21:48 29.7 °F /  -1.3 °C 27.4 °F /  -2.6 °C 30.02in /  1016.5hPa Calm     91% 0.00in /  0mm WeatherDisplay:10.37 W/m2 OVC
21:53 29.7 °F /  -1.3 °C 27.4 °F /  -2.6 °C 30.02in /  1016.5hPa Calm     91% 0.00in /  0mm WeatherDisplay:10.37 W/m2 OVC
21:58 29.7 °F /  -1.3 °C 27.4 °F /  -2.6 °C 30.02in /  1016.5hPa Calm     91% 0.00in /  0mm WeatherDisplay:10.37 W/m2 OVC
22:03 29.7 °F /  -1.3 °C 27.4 °F /  -2.6 °C 30.02in /  1016.5hPa Calm     91% 0.00in /  0mm WeatherDisplay:10.37 W/m2 OVC
22:08 29.7 °F /  -1.3 °C 27.4 °F /  -2.6 °C 30.01in /  1016.1hPa Calm     91% 0.00in /  0mm WeatherDisplay:10.37 W/m2 OVC
22:13 29.7 °F /  -1.3 °C 27.4 °F /  -2.6 °C 30.01in /  1016.1hPa SSW 1.0mph /  1.6km/h   91% 0.00in /  0mm WeatherDisplay:10.37 W/m2 OVC
22:18 29.7 °F /  -1.3 °C 27.4 °F /  -2.6 °C 30.01in /  1016.1hPa SSW 1.2mph /  1.9km/h   91% 0.00in /  0mm WeatherDisplay:10.37 W/m2 OVC
22:19 29.7 °F /  -1.3 °C 27.4 °F /  -2.6 °C 30.01in /  1016.1hPa SSW 1.2mph /  1.9km/h   91% 0.00in /  0mm WeatherDisplay:10.37 W/m2 OVC
22:20 29.7 °F /  -1.3 °C 27.4 °F /  -2.6 °C 30.01in /  1016.1hPa SSW 1.2mph /  1.9km/h   91% 0.00in /  0mm WeatherDisplay:10.37 W/m2 OVC
22:23 29.7 °F /  -1.3 °C 27.4 °F /  -2.6 °C 30.02in /  1016.5hPa SSW 1.2mph /  1.9km/h 1.2mph /  1.9km/h 91% 0.00in /  0mm WeatherDisplay:10.37 W/m2 OVC
22:26 29.7 °F /  -1.3 °C 27.4 °F /  -2.6 °C 30.01in /  1016.1hPa SSW 1.2mph /  1.9km/h   91% 0.00in /  0mm WeatherDisplay:10.37 W/m2 OVC
22:36 29.7 °F /  -1.3 °C 27.4 °F /  -2.6 °C 29.99in /  1015.5hPa Calm     91% 0.00in /  0mm WeatherDisplay:10.37 W/m2 OVC
22:42 29.7 °F /  -1.3 °C 27.4 °F /  -2.6 °C 29.99in /  1015.5hPa SSW 1.0mph /  1.6km/h 1.0mph /  1.6km/h 91% 0.00in /  0mm WeatherDisplay:10.37 W/m2 OVC
22:47 29.8 °F /  -1.2 °C 27.5 °F /  -2.5 °C 30.00in /  1015.8hPa SSW 1.2mph /  1.9km/h 1.2mph /  1.9km/h 91% 0.00in /  0mm WeatherDisplay:10.37 W/m2 OVC
22:52 29.8 °F /  -1.2 °C 27.5 °F /  -2.5 °C 30.00in /  1015.8hPa Calm     91% 0.00in /  0mm WeatherDisplay:10.37 W/m2 OVC
23:07 29.8 °F /  -1.2 °C 27.5 °F /  -2.5 °C 29.99in /  1015.5hPa Calm     91% 0.00in /  0mm WeatherDisplay:10.37 W/m2 OVC
23:12 29.8 °F /  -1.2 °C 27.5 °F /  -2.5 °C 29.99in /  1015.5hPa Calm     91% 0.00in /  0mm WeatherDisplay:10.37 W/m2 OVC
23:17 29.8 °F /  -1.2 °C 27.5 °F /  -2.5 °C 29.99in /  1015.5hPa Calm     91% 0.00in /  0mm WeatherDisplay:10.37 W/m2 OVC
23:22 29.7 °F /  -1.3 °C 27.4 °F /  -2.6 °C 30.00in /  1015.8hPa Calm     91% 0.00in /  0mm WeatherDisplay:10.37 W/m2 OVC
23:27 29.7 °F /  -1.3 °C 27.4 °F /  -2.6 °C 29.99in /  1015.5hPa Calm     91% 0.00in /  0mm WeatherDisplay:10.37 W/m2 OVC
23:37 29.7 °F /  -1.3 °C 27.7 °F /  -2.4 °C 30.01in /  1016.1hPa Calm     92% 0.00in /  0mm WeatherDisplay:10.37 W/m2 OVC
23:52 29.6 °F /  -1.3 °C 27.6 °F /  -2.4 °C 30.00in /  1015.8hPa West 2.3mph /  3.7km/h 2.3mph /  3.7km/h 92% 0.00in /  0mm WeatherDisplay:10.37 W/m2 OVC
23:57 29.6 °F /  -1.3 °C 27.6 °F /  -2.4 °C 30.01in /  1016.1hPa West 2.3mph /  3.7km/h 2.3mph /  3.7km/h 92% 0.00in /  0mm WeatherDisplay:10.37 W/m2 OVC
Smyth Weather
Compliments of Weather Underground - 3 mb